createdAt,value
2018-11-21T00:00:43.977Z,9.97
2018-11-21T00:03:12.559Z,11.00
2018-11-21T00:05:40.849Z,17.13
2018-11-21T00:08:09.117Z,11.20
2018-11-21T00:10:38.106Z,11.33
2018-11-21T00:13:06.381Z,11.53
2018-11-21T00:15:34.684Z,11.30
2018-11-21T00:18:03.483Z,11.37
2018-11-21T00:20:32.364Z,11.43
2018-11-21T00:23:00.822Z,10.67
2018-11-21T00:25:29.302Z,10.33
2018-11-21T00:27:57.780Z,11.70
2018-11-21T00:30:27.272Z,11.33
2018-11-21T00:32:55.864Z,12.63
2018-11-21T00:35:24.190Z,11.83
2018-11-21T00:37:55.569Z,11.60
2018-11-21T00:40:24.392Z,10.87
2018-11-21T00:42:52.672Z,10.73
2018-11-21T00:45:21.130Z,10.80
2018-11-21T00:47:49.505Z,10.17
2018-11-21T00:50:19.114Z,10.30
2018-11-21T00:52:48.834Z,9.67
2018-11-21T00:55:17.336Z,9.93
2018-11-21T00:57:45.575Z,9.43
2018-11-21T01:00:14.076Z,10.00
2018-11-21T01:02:42.754Z,10.97
2018-11-21T01:05:11.542Z,10.53
2018-11-21T01:07:40.537Z,11.90
2018-11-21T01:10:09.277Z,11.10
2018-11-21T01:12:37.588Z,11.30
2018-11-21T01:15:06.278Z,11.30
2018-11-21T01:17:37.394Z,14.40
2018-11-21T01:20:05.902Z,10.57
2018-11-21T01:22:34.186Z,10.67
2018-11-21T01:25:02.474Z,11.53
2018-11-21T01:27:31.142Z,11.17
2018-11-21T01:29:59.431Z,11.77
2018-11-21T01:32:27.703Z,12.10
2018-11-21T01:35:12.487Z,11.90
2018-11-21T01:37:43.149Z,12.40
2018-11-21T01:40:11.464Z,11.27
2018-11-21T01:42:39.744Z,10.93
2018-11-21T01:45:10.261Z,10.27
2018-11-21T01:47:38.649Z,11.83
2018-11-21T01:50:06.945Z,10.40
2018-11-21T01:52:35.177Z,9.87
2018-11-21T01:55:03.572Z,9.50
2018-11-21T01:57:31.881Z,11.07
2018-11-21T02:00:00.164Z,9.10
2018-11-21T02:02:29.022Z,9.80
2018-11-21T02:04:57.359Z,9.63
2018-11-21T02:07:26.025Z,8.90
2018-11-21T02:09:54.378Z,9.40
2018-11-21T02:12:22.769Z,8.47
2018-11-21T02:14:51.018Z,8.60
2018-11-21T02:17:20.249Z,7.53
2018-11-21T02:19:48.574Z,8.47
2018-11-21T02:22:16.859Z,8.43
2018-11-21T02:24:45.172Z,8.87
2018-11-21T02:27:13.971Z,8.80
2018-11-21T02:29:42.289Z,8.43
2018-11-21T02:32:10.634Z,8.60
2018-11-21T02:34:38.858Z,8.30
2018-11-21T02:37:07.265Z,8.97
2018-11-21T02:39:36.041Z,9.03
2018-11-21T02:42:04.304Z,9.17
2018-11-21T02:44:32.618Z,9.03
2018-11-21T02:47:00.925Z,8.93
2018-11-21T02:49:29.288Z,8.30
2018-11-21T02:51:57.672Z,8.10
2018-11-21T02:54:25.922Z,7.80
2018-11-21T02:57:14.911Z,7.90
2018-11-21T02:59:43.277Z,7.93
2018-11-21T03:02:11.877Z,7.93
2018-11-21T03:04:40.134Z,8.17
2018-11-21T03:07:08.497Z,7.97
2018-11-21T03:09:36.867Z,7.60
2018-11-21T03:12:05.776Z,7.30
2018-11-21T03:14:34.207Z,7.77
2018-11-21T03:17:02.884Z,8.00
2018-11-21T03:19:31.260Z,7.57
2018-11-21T03:21:59.555Z,7.40
2018-11-21T03:24:27.863Z,7.37
2018-11-21T03:26:56.574Z,7.10
2018-11-21T03:29:24.809Z,7.53
2018-11-21T03:31:52.998Z,7.00
2018-11-21T03:34:21.315Z,6.67
2018-11-21T03:36:49.609Z,6.90
2018-11-21T03:39:17.845Z,7.13
2018-11-21T03:41:46.381Z,7.13
2018-11-21T03:44:14.661Z,7.87
2018-11-21T03:46:43.089Z,7.60
2018-11-21T03:49:11.916Z,8.73
2018-11-21T03:51:40.202Z,7.53
2018-11-21T03:54:08.445Z,7.57
2018-11-21T03:56:36.765Z,7.73
2018-11-21T03:59:05.015Z,7.80
2018-11-21T04:01:33.336Z,7.40
2018-11-21T04:04:01.610Z,8.30
2018-11-21T04:06:30.276Z,7.70
2018-11-21T04:08:58.512Z,7.70
2018-11-21T04:11:26.880Z,8.03
2018-11-21T04:13:55.183Z,7.40
2018-11-21T04:16:23.870Z,7.00
2018-11-21T04:18:52.309Z,6.60
2018-11-21T04:21:20.603Z,7.30
2018-11-21T04:23:49.297Z,6.93
2018-11-21T04:26:17.550Z,7.27
2018-11-21T04:28:46.014Z,6.20
2018-11-21T04:31:14.385Z,7.07
2018-11-21T04:33:42.667Z,6.63
2018-11-21T04:36:11.001Z,7.33
2018-11-21T04:38:39.385Z,6.87
2018-11-21T04:41:07.881Z,6.87
2018-11-21T04:43:36.188Z,6.67
2018-11-21T04:46:04.474Z,6.60
2018-11-21T04:48:32.743Z,6.07
2018-11-21T04:51:01.005Z,6.40
2018-11-21T04:53:29.325Z,5.93
2018-11-21T04:55:57.567Z,4.83
2018-11-21T04:58:25.850Z,6.37
2018-11-21T05:00:54.095Z,6.33
2018-11-21T05:03:22.880Z,6.23
2018-11-21T05:05:51.192Z,6.40
2018-11-21T05:08:19.510Z,4.87
2018-11-21T05:10:47.917Z,3.50
2018-11-21T05:13:16.180Z,3.30
2018-11-21T05:15:44.399Z,3.30
2018-11-21T05:18:12.703Z,3.30
2018-11-21T05:20:41.009Z,3.33
2018-11-21T05:23:09.665Z,3.63
2018-11-21T05:25:37.987Z,4.00
2018-11-21T05:28:06.467Z,3.00
2018-11-21T05:30:34.687Z,2.80
2018-11-21T05:33:02.966Z,3.83
2018-11-21T05:35:31.456Z,3.63
2018-11-21T05:37:59.737Z,3.50
2018-11-21T05:40:28.048Z,3.77
2018-11-21T05:42:56.770Z,3.70
2018-11-21T05:45:24.973Z,3.60
2018-11-21T05:47:53.174Z,2.83
2018-11-21T05:50:21.623Z,2.63
2018-11-21T05:52:49.856Z,3.20
2018-11-21T05:55:18.142Z,3.00
2018-11-21T05:57:46.402Z,2.70
2018-11-21T06:00:15.010Z,2.07
2018-11-21T06:02:44.328Z,2.40
2018-11-21T06:05:12.737Z,3.90
2018-11-21T06:07:40.977Z,4.50
2018-11-21T06:10:09.260Z,5.23
2018-11-21T06:12:37.508Z,5.07
2018-11-21T06:15:06.118Z,4.00
2018-11-21T06:17:34.469Z,3.63
2018-11-21T06:20:02.877Z,3.90
2018-11-21T06:22:31.519Z,3.13
2018-11-21T06:25:00.247Z,3.30
2018-11-21T06:27:28.964Z,2.60
2018-11-21T06:29:57.484Z,28.37
2018-11-21T06:32:26.235Z,5.93
2018-11-21T06:34:54.541Z,3.27
2018-11-21T06:37:22.977Z,2.40
2018-11-21T06:39:51.269Z,5.50
2018-11-21T06:42:19.532Z,7.27
2018-11-21T06:44:47.773Z,7.53
2018-11-21T06:47:16.060Z,7.13
2018-11-21T06:49:44.445Z,5.63
2018-11-21T06:52:13.074Z,5.30
2018-11-21T06:54:41.367Z,5.07
2018-11-21T06:57:10.063Z,4.80
2018-11-21T06:59:38.287Z,4.77
2018-11-21T07:02:06.542Z,4.93
2018-11-21T07:04:35.002Z,6.87
2018-11-21T07:07:03.222Z,4.10
2018-11-21T07:09:31.665Z,5.87
2018-11-21T07:11:59.953Z,5.97
2018-11-21T07:14:28.601Z,4.40
2018-11-21T07:16:56.883Z,3.93
2018-11-21T07:19:25.147Z,4.57
2018-11-21T07:21:53.397Z,3.47
2018-11-21T07:24:26.254Z,3.60
2018-11-21T07:26:50.135Z,5.43
2018-11-21T07:29:18.887Z,5.27
2018-11-21T07:31:47.394Z,6.57
2018-11-21T07:34:16.328Z,6.43
2018-11-21T07:36:44.752Z,6.87
2018-11-21T07:39:13.212Z,5.70
2018-11-21T07:41:41.538Z,7.00
2018-11-21T07:44:10.255Z,6.73
2018-11-21T07:46:39.067Z,6.07
2018-11-21T07:49:07.551Z,5.97
2018-11-21T07:51:35.768Z,4.97
2018-11-21T07:54:04.435Z,7.30
2018-11-21T07:56:33.225Z,7.07
2018-11-21T07:59:01.888Z,7.83
2018-11-21T08:01:30.592Z,5.17
2018-11-21T08:03:58.832Z,6.73
2018-11-21T08:06:27.118Z,6.90
2018-11-21T08:08:55.367Z,7.17
2018-11-21T08:11:23.786Z,8.03
2018-11-21T08:13:52.488Z,8.90
2018-11-21T08:16:20.962Z,8.50
2018-11-21T08:18:49.537Z,8.30
2018-11-21T08:21:17.830Z,6.57
2018-11-21T08:23:46.117Z,6.57
2018-11-21T08:26:14.528Z,7.20
2018-11-21T08:28:43.172Z,5.00
2018-11-21T08:31:11.585Z,5.37
2018-11-21T08:33:39.906Z,4.43
2018-11-21T08:36:08.125Z,4.53
2018-11-21T08:38:36.569Z,5.13
2018-11-21T08:41:04.853Z,5.97
2018-11-21T08:43:33.060Z,4.97
2018-11-21T08:46:01.317Z,6.10
2018-11-21T08:48:29.673Z,4.33
2018-11-21T08:50:58.948Z,4.93
2018-11-21T08:53:27.305Z,4.73
2018-11-21T08:55:55.737Z,4.47
2018-11-21T08:58:24.239Z,4.90
2018-11-21T09:00:52.983Z,5.70
2018-11-21T09:03:21.697Z,4.97
2018-11-21T09:05:50.240Z,5.53
2018-11-21T09:08:18.800Z,5.27
2018-11-21T09:10:47.170Z,6.20
2018-11-21T09:13:15.502Z,6.97
2018-11-21T09:15:43.856Z,6.40
2018-11-21T09:18:12.161Z,7.23
2018-11-21T09:20:40.392Z,7.93
2018-11-21T09:23:08.817Z,7.60
2018-11-21T09:25:37.293Z,9.00
2018-11-21T09:28:05.848Z,8.13
2018-11-21T09:30:34.430Z,6.97
2018-11-21T09:33:02.799Z,8.27
2018-11-21T09:35:31.526Z,7.70
2018-11-21T09:38:00.209Z,5.63
2018-11-21T09:40:28.452Z,5.83
2018-11-21T09:43:07.124Z,6.73
2018-11-21T09:45:35.500Z,7.33
2018-11-21T09:48:03.745Z,6.47
2018-11-21T09:50:31.993Z,5.97
2018-11-21T09:53:00.492Z,6.13
2018-11-21T09:55:28.715Z,7.73
2018-11-21T09:57:57.167Z,7.73
2018-11-21T10:00:59.323Z,8.53
2018-11-21T10:03:27.588Z,7.70
2018-11-21T10:05:56.067Z,7.20
2018-11-21T10:08:24.403Z,6.30
2018-11-21T10:10:52.817Z,6.83
2018-11-21T10:13:21.547Z,7.43
2018-11-21T10:15:52.222Z,7.10
2018-11-21T10:18:20.405Z,5.93
2018-11-21T10:20:48.843Z,6.97
2018-11-21T10:23:17.317Z,7.47
2018-11-21T10:25:45.617Z,6.47
2018-11-21T10:28:15.061Z,6.90
2018-11-21T10:30:43.859Z,6.50
2018-11-21T10:33:12.612Z,7.10
2018-11-21T10:35:41.223Z,6.90
2018-11-21T10:38:09.486Z,6.30
2018-11-21T10:40:37.723Z,6.17
2018-11-21T10:43:08.190Z,6.10
2018-11-21T10:45:36.915Z,5.93
2018-11-21T10:48:05.167Z,5.83
2018-11-21T10:50:33.357Z,6.40
2018-11-21T10:53:01.618Z,7.03
2018-11-21T10:55:30.200Z,7.33
2018-11-21T10:57:58.422Z,7.07
2018-11-21T11:00:27.177Z,6.50
2018-11-21T11:02:55.442Z,8.07
2018-11-21T11:05:23.713Z,7.10
2018-11-21T11:07:52.032Z,6.03
2018-11-21T11:10:20.282Z,5.90
2018-11-21T11:12:48.633Z,5.80
2018-11-21T11:15:17.457Z,6.07
2018-11-21T11:17:45.952Z,6.03
2018-11-21T11:20:14.244Z,5.60
2018-11-21T11:22:42.513Z,5.33
2018-11-21T11:25:11.171Z,5.50
2018-11-21T11:27:39.459Z,4.87
2018-11-21T11:30:09.244Z,5.17
2018-11-21T11:32:37.473Z,5.93
2018-11-21T11:35:06.217Z,4.93
2018-11-21T11:37:34.510Z,5.43
2018-11-21T11:40:03.215Z,5.00
2018-11-21T11:42:32.569Z,5.53
2018-11-21T11:45:02.073Z,5.60
2018-11-21T11:47:30.370Z,4.90
2018-11-21T11:49:59.062Z,5.53
2018-11-21T11:52:27.314Z,5.67
2018-11-21T11:54:55.575Z,4.90
2018-11-21T11:57:24.187Z,5.00
2018-11-21T11:59:52.897Z,5.60
2018-11-21T12:02:21.527Z,5.57
2018-11-21T12:04:50.290Z,4.67
2018-11-21T12:07:19.097Z,4.20
2018-11-21T12:09:47.516Z,4.70
2018-11-21T12:12:15.827Z,4.67
2018-11-21T12:14:44.570Z,4.43
2018-11-21T12:17:12.757Z,4.43
2018-11-21T12:19:41.215Z,4.77
2018-11-21T12:22:09.667Z,4.00
2018-11-21T12:24:37.876Z,4.07
2018-11-21T12:27:06.111Z,4.30
2018-11-21T12:29:34.417Z,4.90
2018-11-21T12:32:02.657Z,4.50
2018-11-21T12:34:30.962Z,4.33
2018-11-21T12:36:59.754Z,4.27
2018-11-21T12:39:28.867Z,4.30
2018-11-21T12:41:57.527Z,4.23
2018-11-21T12:44:25.970Z,5.17
2018-11-21T12:46:54.254Z,4.57
2018-11-21T12:49:22.992Z,9.53
2018-11-21T12:51:51.254Z,10.57
2018-11-21T12:54:19.515Z,4.00
2018-11-21T12:56:47.802Z,3.87
2018-11-21T12:59:16.037Z,4.00
2018-11-21T13:01:44.788Z,3.33
2018-11-21T13:04:13.624Z,3.30
2018-11-21T13:06:41.969Z,3.40
2018-11-21T13:09:10.214Z,3.33
2018-11-21T13:11:38.913Z,2.93
2018-11-21T13:14:07.285Z,3.40
2018-11-21T13:16:35.502Z,3.40
2018-11-21T13:19:04.162Z,3.23
2018-11-21T13:21:32.451Z,5.00
2018-11-21T13:24:01.181Z,9.60
2018-11-21T13:26:29.961Z,17.17
2018-11-21T13:28:58.480Z,4.97
2018-11-21T13:31:26.746Z,10.87
2018-11-21T13:33:55.512Z,5.80
2018-11-21T13:36:24.094Z,5.37
2018-11-21T13:38:52.327Z,5.10
2018-11-21T13:41:20.728Z,4.50
2018-11-21T13:43:49.164Z,3.37
2018-11-21T13:46:17.394Z,3.60
2018-11-21T13:48:45.648Z,7.37
2018-11-21T13:51:14.146Z,3.50
2018-11-21T13:53:42.356Z,4.13
2018-11-21T13:56:10.892Z,3.57
2018-11-21T13:58:39.597Z,3.63
2018-11-21T14:01:07.877Z,3.60
2018-11-21T14:03:36.690Z,3.97
2018-11-21T14:06:05.314Z,4.20
2018-11-21T14:08:33.987Z,4.20
2018-11-21T14:11:02.764Z,4.03
2018-11-21T14:13:31.430Z,4.40
2018-11-21T14:15:59.771Z,5.20
2018-11-21T14:18:28.499Z,5.00
2018-11-21T14:20:57.188Z,4.90
2018-11-21T14:23:25.410Z,8.40
2018-11-21T14:25:53.859Z,12.07
2018-11-21T14:28:22.130Z,19.07
2018-11-21T14:30:50.436Z,8.77
2018-11-21T14:33:19.328Z,11.73
2018-11-21T14:35:48.553Z,8.43
2018-11-21T14:38:16.797Z,6.87
2018-11-21T14:40:45.163Z,6.77
2018-11-21T14:43:13.739Z,7.80
2018-11-21T14:45:42.551Z,11.87
2018-11-21T14:48:10.703Z,11.23
2018-11-21T14:50:39.417Z,12.93
2018-11-21T14:53:07.446Z,10.07
2018-11-21T14:55:35.866Z,9.83
2018-11-21T14:58:04.091Z,10.50
2018-11-21T15:00:32.368Z,11.87
2018-11-21T15:03:00.668Z,21.77
2018-11-21T15:05:28.958Z,13.97
2018-11-21T15:07:57.591Z,20.00
2018-11-21T15:10:25.853Z,17.40
2018-11-21T15:12:54.554Z,14.43
2018-11-21T15:15:22.790Z,20.50
2018-11-21T15:17:51.058Z,18.80
2018-11-21T15:20:19.516Z,16.10
2018-11-21T15:22:48.043Z,21.07
2018-11-21T15:25:16.789Z,18.17
2018-11-21T15:27:45.235Z,14.80
2018-11-21T15:30:13.543Z,20.57
2018-11-21T15:32:42.306Z,22.07
2018-11-21T15:35:10.701Z,17.90
2018-11-21T15:37:39.031Z,15.87
2018-11-21T15:40:07.346Z,15.23
2018-11-21T15:42:35.766Z,15.00
2018-11-21T15:45:04.056Z,15.53
2018-11-21T15:47:32.869Z,14.40
2018-11-21T15:50:01.147Z,39.30
2018-11-21T15:52:29.549Z,28.97
2018-11-21T15:54:58.228Z,19.17
2018-11-21T15:57:26.898Z,19.00
2018-11-21T15:59:55.349Z,16.07
2018-11-21T16:02:24.071Z,18.03
2018-11-21T16:04:52.562Z,14.80
2018-11-21T16:07:20.960Z,14.37
2018-11-21T16:09:49.453Z,21.63
2018-11-21T16:12:17.955Z,23.93
2018-11-21T16:14:46.709Z,14.53
2018-11-21T16:17:15.072Z,14.27
2018-11-21T16:19:43.844Z,19.53
2018-11-21T16:22:12.555Z,12.27
2018-11-21T16:24:41.021Z,27.40
2018-11-21T16:27:09.713Z,25.93
2018-11-21T16:29:38.137Z,30.87
2018-11-21T16:32:06.793Z,46.40
2018-11-21T16:34:35.568Z,38.63
2018-11-21T16:37:04.146Z,66.87
2018-11-21T16:39:32.936Z,26.43
2018-11-21T16:42:01.456Z,41.83
2018-11-21T16:44:31.434Z,52.50
2018-11-21T16:46:59.748Z,38.10
2018-11-21T16:49:28.173Z,27.77
2018-11-21T16:51:56.966Z,32.13
2018-11-21T16:54:25.569Z,27.90
2018-11-21T16:56:53.868Z,28.13
2018-11-21T16:59:22.253Z,25.10
2018-11-21T17:01:51.029Z,24.23
2018-11-21T17:04:19.309Z,17.30
2018-11-21T17:06:47.598Z,17.03
2018-11-21T17:09:16.014Z,18.07
2018-11-21T17:11:44.263Z,20.67
2018-11-21T17:14:12.983Z,23.13
2018-11-21T17:16:41.655Z,22.23
2018-11-21T17:19:10.156Z,22.17
2018-11-21T17:21:39.497Z,57.80
2018-11-21T17:27:30.594Z,41.83
2018-11-21T17:30:00.956Z,30.80
2018-11-21T17:32:29.722Z,22.30
2018-11-21T17:34:58.515Z,27.30
2018-11-21T17:37:27.012Z,25.40
2018-11-21T17:39:55.757Z,25.73
2018-11-21T17:42:24.063Z,18.67
2018-11-21T17:44:52.364Z,62.40
2018-11-21T17:47:20.789Z,22.37
2018-11-21T17:49:49.072Z,44.47
2018-11-21T17:52:17.677Z,89.83
2018-11-21T17:54:46.320Z,44.17
2018-11-21T17:57:15.071Z,52.63
2018-11-21T17:59:43.443Z,69.50
2018-11-21T18:02:11.893Z,75.00
2018-11-21T18:04:40.891Z,14.80
2018-11-21T18:07:09.676Z,60.37
2018-11-21T18:09:38.394Z,45.70
2018-11-21T18:12:07.164Z,33.50
2018-11-21T18:14:35.902Z,41.97
2018-11-21T18:17:04.652Z,28.77
2018-11-21T18:19:33.364Z,38.60
2018-11-21T18:22:02.166Z,23.87
2018-11-21T18:24:30.721Z,27.57
2018-11-21T18:26:58.989Z,14.47
2018-11-21T18:29:27.830Z,29.53
2018-11-21T18:31:56.574Z,13.23
2018-11-21T18:34:24.904Z,12.10
2018-11-21T18:36:54.449Z,11.53
2018-11-21T18:39:22.890Z,11.83
2018-11-21T18:41:52.716Z,10.87
2018-11-21T18:44:20.436Z,9.97
2018-11-21T18:46:48.878Z,9.60
2018-11-21T18:49:17.368Z,9.47
2018-11-21T18:51:46.356Z,9.83
2018-11-21T18:54:14.784Z,11.73
2018-11-21T18:56:45.502Z,12.97
2018-11-21T18:59:13.214Z,15.23
2018-11-21T19:01:46.616Z,12.70
2018-11-21T19:04:10.336Z,11.97
2018-11-21T19:06:39.348Z,13.30
2018-11-21T19:09:08.156Z,12.40
2018-11-21T19:11:36.938Z,13.87
2018-11-21T19:14:05.356Z,17.50
2018-11-21T19:16:34.064Z,15.57
2018-11-21T19:19:02.802Z,12.03
2018-11-21T19:21:31.551Z,14.80
2018-11-21T19:23:59.898Z,11.50
2018-11-21T19:26:28.410Z,12.87
2018-11-21T19:28:57.318Z,15.10
2018-11-21T19:31:29.577Z,11.53
2018-11-21T19:33:54.396Z,15.37
2018-11-21T19:36:23.272Z,16.00
2018-11-21T19:38:51.581Z,15.73
2018-11-21T19:41:20.263Z,16.27
2018-11-21T19:43:48.558Z,16.80
2018-11-21T19:46:21.298Z,16.60
